sensor_id;sensor_type;location;lat;lon;timestamp;P1;durP1;ratioP1;P2;durP2;ratioP2
50851;SDS011;43953;45.508;-122.806;2022-12-07T00:00:24;23.20;;;16.60;;
50851;SDS011;43953;45.508;-122.806;2022-12-07T00:01:03;19.98;;;15.25;;
50851;SDS011;43953;45.508;-122.806;2022-12-07T00:01:44;20.08;;;15.50;;
50851;SDS011;43953;45.508;-122.806;2022-12-07T00:02:17;22.42;;;16.80;;
50851;SDS011;43953;45.508;-122.806;2022-12-07T00:02:49;20.13;;;15.68;;
50851;SDS011;43953;45.508;-122.806;2022-12-07T00:03:21;20.45;;;15.00;;
50851;SDS011;43953;45.508;-122.806;2022-12-07T00:03:53;22.55;;;15.85;;
50851;SDS011;43953;45.508;-122.806;2022-12-07T00:04:31;19.77;;;14.80;;
50851;SDS011;43953;45.508;-122.806;2022-12-07T00:05:03;24.00;;;16.38;;
50851;SDS011;43953;45.508;-122.806;2022-12-07T00:05:35;22.70;;;16.58;;
50851;SDS011;43953;45.508;-122.806;2022-12-07T00:06:07;21.77;;;15.70;;
50851;SDS011;43953;45.508;-122.806;2022-12-07T00:06:42;22.85;;;15.48;;
50851;SDS011;43953;45.508;-122.806;2022-12-07T00:07:15;22.52;;;17.20;;
50851;SDS011;43953;45.508;-122.806;2022-12-07T00:07:47;21.30;;;16.30;;
50851;SDS011;43953;45.508;-122.806;2022-12-07T00:08:20;20.65;;;15.18;;
50851;SDS011;43953;45.508;-122.806;2022-12-07T00:08:51;22.02;;;15.80;;
50851;SDS011;43953;45.508;-122.806;2022-12-07T00:09:23;21.98;;;14.95;;
50851;SDS011;43953;45.508;-122.806;2022-12-07T00:09:55;21.83;;;15.70;;
50851;SDS011;43953;45.508;-122.806;2022-12-07T00:10:27;20.13;;;15.70;;
50851;SDS011;43953;45.508;-122.806;2022-12-07T00:11:02;21.42;;;16.38;;
50851;SDS011;43953;45.508;-122.806;2022-12-07T00:11:34;21.05;;;16.25;;
50851;SDS011;43953;45.508;-122.806;2022-12-07T00:12:06;22.10;;;16.23;;
50851;SDS011;43953;45.508;-122.806;2022-12-07T00:12:38;19.48;;;14.68;;
50851;SDS011;43953;45.508;-122.806;2022-12-07T00:13:10;22.90;;;16.40;;
50851;SDS011;43953;45.508;-122.806;2022-12-07T00:13:42;22.45;;;16.05;;
50851;SDS011;43953;45.508;-122.806;2022-12-07T00:14:14;24.42;;;15.25;;
50851;SDS011;43953;45.508;-122.806;2022-12-07T00:14:47;22.00;;;15.75;;
50851;SDS011;43953;45.508;-122.806;2022-12-07T00:15:19;22.10;;;15.70;;
50851;SDS011;43953;45.508;-122.806;2022-12-07T00:15:50;21.92;;;15.18;;
50851;SDS011;43953;45.508;-122.806;2022-12-07T00:16:23;21.70;;;16.85;;
50851;SDS011;43953;45.508;-122.806;2022-12-07T00:16:56;21.23;;;16.27;;
50851;SDS011;43953;45.508;-122.806;2022-12-07T00:17:28;26.15;;;15.85;;
50851;SDS011;43953;45.508;-122.806;2022-12-07T00:17:59;21.80;;;16.20;;
50851;SDS011;43953;45.508;-122.806;2022-12-07T00:18:31;21.15;;;15.25;;
50851;SDS011;43953;45.508;-122.806;2022-12-07T00:19:03;21.85;;;16.70;;
50851;SDS011;43953;45.508;-122.806;2022-12-07T00:19:35;21.63;;;16.73;;
50851;SDS011;43953;45.508;-122.806;2022-12-07T00:20:07;24.88;;;17.77;;
50851;SDS011;43953;45.508;-122.806;2022-12-07T00:20:39;22.10;;;17.05;;
50851;SDS011;43953;45.508;-122.806;2022-12-07T00:21:14;23.58;;;17.67;;
50851;SDS011;43953;45.508;-122.806;2022-12-07T00:21:49;24.48;;;16.90;;
50851;SDS011;43953;45.508;-122.806;2022-12-07T00:22:20;22.73;;;16.33;;
50851;SDS011;43953;45.508;-122.806;2022-12-07T00:22:52;23.17;;;16.95;;
50851;SDS011;43953;45.508;-122.806;2022-12-07T00:23:24;20.05;;;15.73;;
50851;SDS011;43953;45.508;-122.806;2022-12-07T00:23:56;21.20;;;15.80;;
50851;SDS011;43953;45.508;-122.806;2022-12-07T00:24:28;19.05;;;14.95;;
50851;SDS011;43953;45.508;-122.806;2022-12-07T00:25:00;19.63;;;15.20;;
50851;SDS011;43953;45.508;-122.806;2022-12-07T00:25:32;21.45;;;16.02;;
50851;SDS011;43953;45.508;-122.806;2022-12-07T00:26:07;23.60;;;15.75;;
50851;SDS011;43953;45.508;-122.806;2022-12-07T00:26:41;21.65;;;15.32;;
50851;SDS011;43953;45.508;-122.806;2022-12-07T00:27:14;20.95;;;15.30;;
50851;SDS011;43953;45.508;-122.806;2022-12-07T00:27:46;26.10;;;16.77;;
50851;SDS011;43953;45.508;-122.806;2022-12-07T00:28:18;22.83;;;16.77;;
50851;SDS011;43953;45.508;-122.806;2022-12-07T00:28:51;25.77;;;18.30;;
50851;SDS011;43953;45.508;-122.806;2022-12-07T00:29:25;26.38;;;18.45;;
50851;SDS011;43953;45.508;-122.806;2022-12-07T00:29:57;24.60;;;17.98;;
50851;SDS011;43953;45.508;-122.806;2022-12-07T00:30:29;24.92;;;18.35;;
50851;SDS011;43953;45.508;-122.806;2022-12-07T00:31:02;26.77;;;18.75;;
50851;SDS011;43953;45.508;-122.806;2022-12-07T00:31:41;27.55;;;18.92;;
50851;SDS011;43953;45.508;-122.806;2022-12-07T00:32:12;24.63;;;18.33;;
50851;SDS011;43953;45.508;-122.806;2022-12-07T00:32:44;28.00;;;19.17;;
50851;SDS011;43953;45.508;-122.806;2022-12-07T00:33:16;24.52;;;18.48;;
50851;SDS011;43953;45.508;-122.806;2022-12-07T00:33:48;23.83;;;17.95;;
50851;SDS011;43953;45.508;-122.806;2022-12-07T00:34:20;24.45;;;18.65;;
50851;SDS011;43953;45.508;-122.806;2022-12-07T00:34:52;27.48;;;19.67;;
50851;SDS011;43953;45.508;-122.806;2022-12-07T00:35:24;25.48;;;19.13;;
50851;SDS011;43953;45.508;-122.806;2022-12-07T00:35:56;24.98;;;18.77;;
50851;SDS011;43953;45.508;-122.806;2022-12-07T00:36:29;23.00;;;18.25;;
50851;SDS011;43953;45.508;-122.806;2022-12-07T00:37:01;24.73;;;19.17;;
50851;SDS011;43953;45.508;-122.806;2022-12-07T00:37:32;24.67;;;18.27;;
50851;SDS011;43953;45.508;-122.806;2022-12-07T00:38:04;24.25;;;18.88;;
50851;SDS011;43953;45.508;-122.806;2022-12-07T00:38:36;24.50;;;18.55;;
50851;SDS011;43953;45.508;-122.806;2022-12-07T00:39:09;23.40;;;18.23;;
50851;SDS011;43953;45.508;-122.806;2022-12-07T00:39:41;24.35;;;17.52;;
50851;SDS011;43953;45.508;-122.806;2022-12-07T00:40:13;23.63;;;18.52;;
50851;SDS011;43953;45.508;-122.806;2022-12-07T00:40:44;22.15;;;17.25;;
50851;SDS011;43953;45.508;-122.806;2022-12-07T00:41:26;23.95;;;17.08;;
50851;SDS011;43953;45.508;-122.806;2022-12-07T00:41:58;24.17;;;17.52;;
50851;SDS011;43953;45.508;-122.806;2022-12-07T00:42:30;21.80;;;16.63;;
50851;SDS011;43953;45.508;-122.806;2022-12-07T00:43:02;23.55;;;17.67;;
50851;SDS011;43953;45.508;-122.806;2022-12-07T00:43:33;22.13;;;17.27;;
50851;SDS011;43953;45.508;-122.806;2022-12-07T00:44:05;24.55;;;18.67;;
50851;SDS011;43953;45.508;-122.806;2022-12-07T00:44:37;25.08;;;19.02;;
50851;SDS011;43953;45.508;-122.806;2022-12-07T00:45:09;25.33;;;17.90;;
50851;SDS011;43953;45.508;-122.806;2022-12-07T00:45:40;24.30;;;18.20;;
50851;SDS011;43953;45.508;-122.806;2022-12-07T00:46:12;24.55;;;18.73;;
50851;SDS011;43953;45.508;-122.806;2022-12-07T00:46:45;24.38;;;17.77;;
50851;SDS011;43953;45.508;-122.806;2022-12-07T00:47:17;24.05;;;19.00;;
50851;SDS011;43953;45.508;-122.806;2022-12-07T00:47:49;22.65;;;17.13;;
50851;SDS011;43953;45.508;-122.806;2022-12-07T00:48:21;23.88;;;17.80;;
50851;SDS011;43953;45.508;-122.806;2022-12-07T00:48:53;24.33;;;17.58;;
50851;SDS011;43953;45.508;-122.806;2022-12-07T00:49:25;23.70;;;17.90;;
50851;SDS011;43953;45.508;-122.806;2022-12-07T00:49:57;23.20;;;16.95;;
50851;SDS011;43953;45.508;-122.806;2022-12-07T00:50:29;26.42;;;18.20;;
50851;SDS011;43953;45.508;-122.806;2022-12-07T00:51:01;24.27;;;17.30;;
50851;SDS011;43953;45.508;-122.806;2022-12-07T00:51:33;23.73;;;17.58;;
50851;SDS011;43953;45.508;-122.806;2022-12-07T00:52:05;24.88;;;18.67;;
50851;SDS011;43953;45.508;-122.806;2022-12-07T00:52:37;26.27;;;17.42;;
50851;SDS011;43953;45.508;-122.806;2022-12-07T00:53:08;24.58;;;19.60;;
50851;SDS011;43953;45.508;-122.806;2022-12-07T00:53:40;26.60;;;18.98;;
50851;SDS011;43953;45.508;-122.806;2022-12-07T00:54:12;23.48;;;17.95;;
50851;SDS011;43953;45.508;-122.806;2022-12-07T00:54:44;23.58;;;18.13;;
50851;SDS011;43953;45.508;-122.806;2022-12-07T00:55:16;23.95;;;17.92;;
50851;SDS011;43953;45.508;-122.806;2022-12-07T00:55:48;25.33;;;18.23;;
50851;SDS011;43953;45.508;-122.806;2022-12-07T00:56:24;24.05;;;18.17;;
50851;SDS011;43953;45.508;-122.806;2022-12-07T00:56:57;23.88;;;16.98;;
50851;SDS011;43953;45.508;-122.806;2022-12-07T00:57:30;25.38;;;17.52;;
50851;SDS011;43953;45.508;-122.806;2022-12-07T00:58:02;23.13;;;17.98;;
50851;SDS011;43953;45.508;-122.806;2022-12-07T00:58:34;24.25;;;17.35;;
50851;SDS011;43953;45.508;-122.806;2022-12-07T00:59:06;23.45;;;17.13;;
50851;SDS011;43953;45.508;-122.806;2022-12-07T00:59:38;22.95;;;17.02;;
50851;SDS011;43953;45.508;-122.806;2022-12-07T01:00:09;23.70;;;17.08;;
50851;SDS011;43953;45.508;-122.806;2022-12-07T01:00:42;25.75;;;18.15;;
50851;SDS011;43953;45.508;-122.806;2022-12-07T01:01:14;22.92;;;16.55;;
50851;SDS011;43953;45.508;-122.806;2022-12-07T01:01:46;22.00;;;17.13;;
50851;SDS011;43953;45.508;-122.806;2022-12-07T01:02:18;25.13;;;18.17;;
50851;SDS011;43953;45.508;-122.806;2022-12-07T01:02:50;23.30;;;16.88;;
50851;SDS011;43953;45.508;-122.806;2022-12-07T01:03:21;21.77;;;16.17;;
50851;SDS011;43953;45.508;-122.806;2022-12-07T01:03:53;26.10;;;17.98;;
50851;SDS011;43953;45.508;-122.806;2022-12-07T01:04:25;24.52;;;18.67;;
50851;SDS011;43953;45.508;-122.806;2022-12-07T01:04:57;23.17;;;17.02;;
50851;SDS011;43953;45.508;-122.806;2022-12-07T01:05:29;23.27;;;17.05;;
50851;SDS011;43953;45.508;-122.806;2022-12-07T01:06:00;24.55;;;17.70;;
50851;SDS011;43953;45.508;-122.806;2022-12-07T01:06:33;23.05;;;16.55;;
50851;SDS011;43953;45.508;-122.806;2022-12-07T01:07:05;23.67;;;17.35;;
50851;SDS011;43953;45.508;-122.806;2022-12-07T01:07:37;24.35;;;17.88;;
50851;SDS011;43953;45.508;-122.806;2022-12-07T01:08:09;24.90;;;17.73;;
50851;SDS011;43953;45.508;-122.806;2022-12-07T01:08:40;24.67;;;17.40;;
50851;SDS011;43953;45.508;-122.806;2022-12-07T01:09:12;24.27;;;17.73;;
50851;SDS011;43953;45.508;-122.806;2022-12-07T01:09:44;23.67;;;17.00;;
50851;SDS011;43953;45.508;-122.806;2022-12-07T01:10:16;24.00;;;17.33;;
50851;SDS011;43953;45.508;-122.806;2022-12-07T01:10:48;24.40;;;17.63;;
50851;SDS011;43953;45.508;-122.806;2022-12-07T01:11:22;26.33;;;18.95;;
50851;SDS011;43953;45.508;-122.806;2022-12-07T01:11:56;24.13;;;18.42;;
50851;SDS011;43953;45.508;-122.806;2022-12-07T01:12:27;27.58;;;18.25;;
50851;SDS011;43953;45.508;-122.806;2022-12-07T01:12:59;22.88;;;17.15;;
50851;SDS011;43953;45.508;-122.806;2022-12-07T01:13:32;25.85;;;17.75;;
50851;SDS011;43953;45.508;-122.806;2022-12-07T01:14:04;25.17;;;17.70;;
50851;SDS011;43953;45.508;-122.806;2022-12-07T01:14:36;27.67;;;18.33;;
50851;SDS011;43953;45.508;-122.806;2022-12-07T01:15:08;25.88;;;18.55;;
50851;SDS011;43953;45.508;-122.806;2022-12-07T01:15:41;25.77;;;18.38;;
50851;SDS011;43953;45.508;-122.806;2022-12-07T01:16:14;26.42;;;18.60;;
50851;SDS011;43953;45.508;-122.806;2022-12-07T01:16:47;24.73;;;17.33;;
50851;SDS011;43953;45.508;-122.806;2022-12-07T01:17:19;25.50;;;18.67;;
50851;SDS011;43953;45.508;-122.806;2022-12-07T01:17:50;24.95;;;18.58;;
50851;SDS011;43953;45.508;-122.806;2022-12-07T01:18:22;25.17;;;17.30;;
50851;SDS011;43953;45.508;-122.806;2022-12-07T01:18:54;24.17;;;17.80;;
50851;SDS011;43953;45.508;-122.806;2022-12-07T01:19:27;24.00;;;17.38;;
50851;SDS011;43953;45.508;-122.806;2022-12-07T01:19:59;23.10;;;17.20;;
50851;SDS011;43953;45.508;-122.806;2022-12-07T01:20:31;26.52;;;18.45;;
50851;SDS011;43953;45.508;-122.806;2022-12-07T01:21:05;25.55;;;18.08;;
50851;SDS011;43953;45.508;-122.806;2022-12-07T01:21:38;26.55;;;17.80;;
50851;SDS011;43953;45.508;-122.806;2022-12-07T01:22:10;24.27;;;17.80;;
50851;SDS011;43953;45.508;-122.806;2022-12-07T01:22:42;27.48;;;19.15;;
50851;SDS011;43953;45.508;-122.806;2022-12-07T01:23:14;25.45;;;18.23;;
50851;SDS011;43953;45.508;-122.806;2022-12-07T01:23:46;27.77;;;17.55;;
50851;SDS011;43953;45.508;-122.806;2022-12-07T01:24:19;24.27;;;16.70;;
50851;SDS011;43953;45.508;-122.806;2022-12-07T01:24:50;25.38;;;17.13;;
50851;SDS011;43953;45.508;-122.806;2022-12-07T01:25:22;24.33;;;17.02;;
50851;SDS011;43953;45.508;-122.806;2022-12-07T01:25:55;25.60;;;18.48;;
50851;SDS011;43953;45.508;-122.806;2022-12-07T01:26:27;23.90;;;17.88;;
50851;SDS011;43953;45.508;-122.806;2022-12-07T01:26:59;26.60;;;17.65;;
50851;SDS011;43953;45.508;-122.806;2022-12-07T01:27:32;24.25;;;17.75;;
50851;SDS011;43953;45.508;-122.806;2022-12-07T01:28:04;24.50;;;17.52;;
50851;SDS011;43953;45.508;-122.806;2022-12-07T01:28:36;24.80;;;17.60;;
50851;SDS011;43953;45.508;-122.806;2022-12-07T01:29:08;25.95;;;18.65;;
50851;SDS011;43953;45.508;-122.806;2022-12-07T01:29:40;26.65;;;18.70;;
50851;SDS011;43953;45.508;-122.806;2022-12-07T01:30:12;25.17;;;18.45;;
50851;SDS011;43953;45.508;-122.806;2022-12-07T01:30:44;25.27;;;17.73;;
50851;SDS011;43953;45.508;-122.806;2022-12-07T01:31:17;25.30;;;18.17;;
50851;SDS011;43953;45.508;-122.806;2022-12-07T01:31:51;25.60;;;18.98;;
50851;SDS011;43953;45.508;-122.806;2022-12-07T01:32:22;24.77;;;18.33;;
50851;SDS011;43953;45.508;-122.806;2022-12-07T01:32:54;25.45;;;18.33;;
50851;SDS011;43953;45.508;-122.806;2022-12-07T01:33:30;23.80;;;17.40;;
50851;SDS011;43953;45.508;-122.806;2022-12-07T01:34:03;26.92;;;17.45;;
50851;SDS011;43953;45.508;-122.806;2022-12-07T01:34:35;28.67;;;17.55;;
50851;SDS011;43953;45.508;-122.806;2022-12-07T01:35:07;26.48;;;18.13;;
50851;SDS011;43953;45.508;-122.806;2022-12-07T01:35:39;25.17;;;18.23;;
50851;SDS011;43953;45.508;-122.806;2022-12-07T01:36:17;26.63;;;17.92;;
50851;SDS011;43953;45.508;-122.806;2022-12-07T01:37:00;25.35;;;17.08;;
50851;SDS011;43953;45.508;-122.806;2022-12-07T01:37:35;26.08;;;18.77;;
50851;SDS011;43953;45.508;-122.806;2022-12-07T01:38:07;28.73;;;18.30;;
50851;SDS011;43953;45.508;-122.806;2022-12-07T01:38:39;24.77;;;16.95;;
50851;SDS011;43953;45.508;-122.806;2022-12-07T01:39:11;25.33;;;18.15;;
50851;SDS011;43953;45.508;-122.806;2022-12-07T01:39:43;27.45;;;18.27;;
50851;SDS011;43953;45.508;-122.806;2022-12-07T01:40:14;28.02;;;18.90;;
50851;SDS011;43953;45.508;-122.806;2022-12-07T01:40:53;27.65;;;19.10;;
50851;SDS011;43953;45.508;-122.806;2022-12-07T01:41:27;28.15;;;19.55;;
50851;SDS011;43953;45.508;-122.806;2022-12-07T01:42:01;27.42;;;19.33;;
50851;SDS011;43953;45.508;-122.806;2022-12-07T01:42:33;31.95;;;19.90;;
50851;SDS011;43953;45.508;-122.806;2022-12-07T01:43:14;29.17;;;19.90;;
50851;SDS011;43953;45.508;-122.806;2022-12-07T01:45:49;32.03;;;20.35;;
50851;SDS011;43953;45.508;-122.806;2022-12-07T01:46:21;28.38;;;19.67;;
50851;SDS011;43953;45.508;-122.806;2022-12-07T01:46:54;29.27;;;19.30;;
50851;SDS011;43953;45.508;-122.806;2022-12-07T01:47:34;28.70;;;20.50;;
50851;SDS011;43953;45.508;-122.806;2022-12-07T01:48:06;28.30;;;19.33;;
50851;SDS011;43953;45.508;-122.806;2022-12-07T01:48:41;29.25;;;19.88;;
50851;SDS011;43953;45.508;-122.806;2022-12-07T01:49:27;29.23;;;19.77;;
50851;SDS011;43953;45.508;-122.806;2022-12-07T01:50:06;30.15;;;20.38;;
50851;SDS011;43953;45.508;-122.806;2022-12-07T01:50:38;29.05;;;20.60;;
50851;SDS011;43953;45.508;-122.806;2022-12-07T01:51:11;26.08;;;19.48;;
50851;SDS011;43953;45.508;-122.806;2022-12-07T01:51:45;30.83;;;20.75;;
50851;SDS011;43953;45.508;-122.806;2022-12-07T01:52:29;31.02;;;20.35;;
50851;SDS011;43953;45.508;-122.806;2022-12-07T01:53:04;27.17;;;20.38;;
50851;SDS011;43953;45.508;-122.806;2022-12-07T01:53:44;28.05;;;20.25;;
50851;SDS011;43953;45.508;-122.806;2022-12-07T01:54:16;27.65;;;19.38;;
50851;SDS011;43953;45.508;-122.806;2022-12-07T01:54:52;27.80;;;20.67;;
50851;SDS011;43953;45.508;-122.806;2022-12-07T01:55:27;30.08;;;19.45;;
50851;SDS011;43953;45.508;-122.806;2022-12-07T01:55:59;28.67;;;18.83;;
50851;SDS011;43953;45.508;-122.806;2022-12-07T01:56:31;32.85;;;20.33;;
50851;SDS011;43953;45.508;-122.806;2022-12-07T01:57:03;29.10;;;20.73;;
50851;SDS011;43953;45.508;-122.806;2022-12-07T01:57:40;28.73;;;21.05;;
50851;SDS011;43953;45.508;-122.806;2022-12-07T01:58:15;32.60;;;19.75;;
50851;SDS011;43953;45.508;-122.806;2022-12-07T01:58:48;31.15;;;20.70;;
50851;SDS011;43953;45.508;-122.806;2022-12-07T01:59:21;28.50;;;19.85;;
50851;SDS011;43953;45.508;-122.806;2022-12-07T01:59:56;28.77;;;19.63;;
50851;SDS011;43953;45.508;-122.806;2022-12-07T02:00:29;29.48;;;20.00;;
50851;SDS011;43953;45.508;-122.806;2022-12-07T02:01:01;28.60;;;18.92;;
50851;SDS011;43953;45.508;-122.806;2022-12-07T02:01:33;29.85;;;20.38;;
50851;SDS011;43953;45.508;-122.806;2022-12-07T02:02:07;27.38;;;19.35;;
50851;SDS011;43953;45.508;-122.806;2022-12-07T02:03:42;27.50;;;18.27;;
50851;SDS011;43953;45.508;-122.806;2022-12-07T02:04:15;29.38;;;19.95;;
50851;SDS011;43953;45.508;-122.806;2022-12-07T02:04:47;28.63;;;19.38;;
50851;SDS011;43953;45.508;-122.806;2022-12-07T02:05:20;26.92;;;19.38;;
50851;SDS011;43953;45.508;-122.806;2022-12-07T02:05:53;27.65;;;18.77;;
50851;SDS011;43953;45.508;-122.806;2022-12-07T02:06:26;27.40;;;19.35;;
50851;SDS011;43953;45.508;-122.806;2022-12-07T02:06:58;26.75;;;18.48;;
50851;SDS011;43953;45.508;-122.806;2022-12-07T02:07:30;29.20;;;19.00;;
50851;SDS011;43953;45.508;-122.806;2022-12-07T02:08:05;28.10;;;19.05;;
50851;SDS011;43953;45.508;-122.806;2022-12-07T02:08:37;28.17;;;17.83;;
50851;SDS011;43953;45.508;-122.806;2022-12-07T02:09:09;30.45;;;19.48;;
50851;SDS011;43953;45.508;-122.806;2022-12-07T02:09:42;26.70;;;19.35;;
50851;SDS011;43953;45.508;-122.806;2022-12-07T02:10:15;30.73;;;20.08;;
50851;SDS011;43953;45.508;-122.806;2022-12-07T02:10:52;25.60;;;18.63;;
50851;SDS011;43953;45.508;-122.806;2022-12-07T02:11:24;27.83;;;19.52;;
50851;SDS011;43953;45.508;-122.806;2022-12-07T02:11:55;26.08;;;18.30;;
50851;SDS011;43953;45.508;-122.806;2022-12-07T02:12:28;27.30;;;17.92;;
50851;SDS011;43953;45.508;-122.806;2022-12-07T02:13:02;25.42;;;18.40;;
50851;SDS011;43953;45.508;-122.806;2022-12-07T02:13:42;27.15;;;19.05;;
50851;SDS011;43953;45.508;-122.806;2022-12-07T02:14:17;26.63;;;18.02;;
50851;SDS011;43953;45.508;-122.806;2022-12-07T02:14:48;27.50;;;18.05;;
50851;SDS011;43953;45.508;-122.806;2022-12-07T02:15:23;25.30;;;17.38;;
50851;SDS011;43953;45.508;-122.806;2022-12-07T02:17:11;26.20;;;17.88;;
50851;SDS011;43953;45.508;-122.806;2022-12-07T02:18:07;27.98;;;18.00;;
50851;SDS011;43953;45.508;-122.806;2022-12-07T02:19:05;30.40;;;18.98;;
50851;SDS011;43953;45.508;-122.806;2022-12-07T02:20:33;28.00;;;18.58;;
50851;SDS011;43953;45.508;-122.806;2022-12-07T02:23:38;29.70;;;19.10;;
50851;SDS011;43953;45.508;-122.806;2022-12-07T02:25:14;31.45;;;19.65;;
50851;SDS011;43953;45.508;-122.806;2022-12-07T02:28:33;26.02;;;17.05;;
50851;SDS011;43953;45.508;-122.806;2022-12-07T02:29:25;29.17;;;18.35;;
50851;SDS011;43953;45.508;-122.806;2022-12-07T02:30:19;29.23;;;18.58;;
50851;SDS011;43953;45.508;-122.806;2022-12-07T02:30:52;29.45;;;19.10;;
50851;SDS011;43953;45.508;-122.806;2022-12-07T02:31:28;26.85;;;18.50;;
50851;SDS011;43953;45.508;-122.806;2022-12-07T02:32:04;28.10;;;19.02;;
50851;SDS011;43953;45.508;-122.806;2022-12-07T02:32:54;31.17;;;18.48;;
50851;SDS011;43953;45.508;-122.806;2022-12-07T02:33:33;26.23;;;17.90;;
50851;SDS011;43953;45.508;-122.806;2022-12-07T02:34:18;26.27;;;17.55;;
50851;SDS011;43953;45.508;-122.806;2022-12-07T02:35:07;26.63;;;18.08;;
50851;SDS011;43953;45.508;-122.806;2022-12-07T02:36:02;26.00;;;18.10;;
50851;SDS011;43953;45.508;-122.806;2022-12-07T02:36:43;27.40;;;18.25;;
50851;SDS011;43953;45.508;-122.806;2022-12-07T02:37:41;25.55;;;18.23;;
50851;SDS011;43953;45.508;-122.806;2022-12-07T02:39:44;25.25;;;17.65;;
50851;SDS011;43953;45.508;-122.806;2022-12-07T02:41:34;26.90;;;18.02;;
50851;SDS011;43953;45.508;-122.806;2022-12-07T02:42:15;28.13;;;18.00;;
50851;SDS011;43953;45.508;-122.806;2022-12-07T02:42:51;26.05;;;16.95;;
50851;SDS011;43953;45.508;-122.806;2022-12-07T02:43:39;25.90;;;17.63;;
50851;SDS011;43953;45.508;-122.806;2022-12-07T02:44:20;26.05;;;18.63;;
50851;SDS011;43953;45.508;-122.806;2022-12-07T02:44:56;28.08;;;18.85;;
50851;SDS011;43953;45.508;-122.806;2022-12-07T02:45:30;28.90;;;19.42;;
50851;SDS011;43953;45.508;-122.806;2022-12-07T02:46:04;26.42;;;17.92;;
50851;SDS011;43953;45.508;-122.806;2022-12-07T02:46:51;29.13;;;19.00;;
50851;SDS011;43953;45.508;-122.806;2022-12-07T02:47:30;26.73;;;17.67;;
50851;SDS011;43953;45.508;-122.806;2022-12-07T02:48:05;26.83;;;17.00;;
50851;SDS011;43953;45.508;-122.806;2022-12-07T02:48:40;26.70;;;17.70;;
50851;SDS011;43953;45.508;-122.806;2022-12-07T02:49:14;27.60;;;17.52;;
50851;SDS011;43953;45.508;-122.806;2022-12-07T02:49:46;24.55;;;17.83;;
50851;SDS011;43953;45.508;-122.806;2022-12-07T02:50:19;25.55;;;18.30;;
50851;SDS011;43953;45.508;-122.806;2022-12-07T02:50:52;27.35;;;18.58;;
50851;SDS011;43953;45.508;-122.806;2022-12-07T02:51:25;25.95;;;17.95;;
50851;SDS011;43953;45.508;-122.806;2022-12-07T02:52:01;28.73;;;19.25;;
50851;SDS011;43953;45.508;-122.806;2022-12-07T02:52:34;25.05;;;17.73;;
50851;SDS011;43953;45.508;-122.806;2022-12-07T02:53:05;27.02;;;18.42;;
50851;SDS011;43953;45.508;-122.806;2022-12-07T02:53:57;26.30;;;18.63;;
50851;SDS011;43953;45.508;-122.806;2022-12-07T02:54:29;28.65;;;19.25;;
50851;SDS011;43953;45.508;-122.806;2022-12-07T02:55:01;26.92;;;19.75;;
50851;SDS011;43953;45.508;-122.806;2022-12-07T02:55:37;29.48;;;20.17;;
50851;SDS011;43953;45.508;-122.806;2022-12-07T03:00:41;30.38;;;20.20;;
50851;SDS011;43953;45.508;-122.806;2022-12-07T03:02:29;31.77;;;20.45;;
50851;SDS011;43953;45.508;-122.806;2022-12-07T03:03:22;31.33;;;20.42;;
50851;SDS011;43953;45.508;-122.806;2022-12-07T03:03:58;27.95;;;20.00;;
50851;SDS011;43953;45.508;-122.806;2022-12-07T03:06:31;31.40;;;21.20;;
50851;SDS011;43953;45.508;-122.806;2022-12-07T03:07:11;30.15;;;20.30;;
50851;SDS011;43953;45.508;-122.806;2022-12-07T03:10:50;34.60;;;21.52;;
50851;SDS011;43953;45.508;-122.806;2022-12-07T03:12:16;31.70;;;21.73;;
50851;SDS011;43953;45.508;-122.806;2022-12-07T03:14:12;33.15;;;21.98;;
50851;SDS011;43953;45.508;-122.806;2022-12-07T03:14:54;32.67;;;22.10;;
50851;SDS011;43953;45.508;-122.806;2022-12-07T03:15:39;31.23;;;21.90;;
50851;SDS011;43953;45.508;-122.806;2022-12-07T03:16:22;33.33;;;22.58;;
50851;SDS011;43953;45.508;-122.806;2022-12-07T03:17:33;33.47;;;22.98;;
50851;SDS011;43953;45.508;-122.806;2022-12-07T03:18:09;34.60;;;22.25;;
50851;SDS011;43953;45.508;-122.806;2022-12-07T03:18:57;31.23;;;21.55;;
50851;SDS011;43953;45.508;-122.806;2022-12-07T03:19:32;32.58;;;21.80;;
50851;SDS011;43953;45.508;-122.806;2022-12-07T03:20:08;30.50;;;20.58;;
50851;SDS011;43953;45.508;-122.806;2022-12-07T03:20:42;33.88;;;21.90;;
50851;SDS011;43953;45.508;-122.806;2022-12-07T03:21:18;28.60;;;19.30;;
50851;SDS011;43953;45.508;-122.806;2022-12-07T03:22:02;29.42;;;20.52;;
50851;SDS011;43953;45.508;-122.806;2022-12-07T03:22:37;30.02;;;20.90;;
50851;SDS011;43953;45.508;-122.806;2022-12-07T03:23:11;31.98;;;21.33;;
50851;SDS011;43953;45.508;-122.806;2022-12-07T03:23:44;32.33;;;21.40;;
50851;SDS011;43953;45.508;-122.806;2022-12-07T03:24:24;30.77;;;20.65;;
50851;SDS011;43953;45.508;-122.806;2022-12-07T03:25:04;30.15;;;19.50;;
50851;SDS011;43953;45.508;-122.806;2022-12-07T03:25:40;30.35;;;20.02;;
50851;SDS011;43953;45.508;-122.806;2022-12-07T03:26:17;27.10;;;19.48;;
50851;SDS011;43953;45.508;-122.806;2022-12-07T03:26:55;27.27;;;19.50;;
50851;SDS011;43953;45.508;-122.806;2022-12-07T03:28:24;23.63;;;16.65;;
50851;SDS011;43953;45.508;-122.806;2022-12-07T03:28:59;30.05;;;19.88;;
50851;SDS011;43953;45.508;-122.806;2022-12-07T03:29:40;27.38;;;19.13;;
50851;SDS011;43953;45.508;-122.806;2022-12-07T03:30:21;27.98;;;19.65;;
50851;SDS011;43953;45.508;-122.806;2022-12-07T03:31:16;26.35;;;17.42;;
50851;SDS011;43953;45.508;-122.806;2022-12-07T03:31:58;27.90;;;19.73;;
50851;SDS011;43953;45.508;-122.806;2022-12-07T03:32:48;28.85;;;19.80;;
50851;SDS011;43953;45.508;-122.806;2022-12-07T03:33:31;30.70;;;20.55;;
50851;SDS011;43953;45.508;-122.806;2022-12-07T03:34:11;29.48;;;19.52;;
50851;SDS011;43953;45.508;-122.806;2022-12-07T03:36:10;29.73;;;20.30;;
50851;SDS011;43953;45.508;-122.806;2022-12-07T03:36:53;29.25;;;18.65;;
50851;SDS011;43953;45.508;-122.806;2022-12-07T03:37:40;32.42;;;20.02;;
50851;SDS011;43953;45.508;-122.806;2022-12-07T03:38:31;29.75;;;20.30;;
50851;SDS011;43953;45.508;-122.806;2022-12-07T03:39:27;29.25;;;19.77;;
50851;SDS011;43953;45.508;-122.806;2022-12-07T03:40:26;28.13;;;19.00;;
50851;SDS011;43953;45.508;-122.806;2022-12-07T03:41:40;28.00;;;19.55;;
50851;SDS011;43953;45.508;-122.806;2022-12-07T03:42:12;29.27;;;20.77;;
50851;SDS011;43953;45.508;-122.806;2022-12-07T03:42:44;30.30;;;20.65;;
50851;SDS011;43953;45.508;-122.806;2022-12-07T03:43:17;28.58;;;20.17;;
50851;SDS011;43953;45.508;-122.806;2022-12-07T03:43:50;30.35;;;20.25;;
50851;SDS011;43953;45.508;-122.806;2022-12-07T03:44:25;30.63;;;19.85;;
50851;SDS011;43953;45.508;-122.806;2022-12-07T03:44:57;28.42;;;20.00;;
50851;SDS011;43953;45.508;-122.806;2022-12-07T03:45:40;27.70;;;19.50;;